Time;durP1;ratioP1;P1;durP2;ratioP2;P2;SDS_P1;SDS_P2;PMS_P1;PMS_P2;Temp;Humidity;BMP_temperature;BMP_pressure;BME280_temperature;BME280_humidity;BME280_pressure;Samples;Min_cycle;Max_cycle;Signal;HPM_P1;HPM_P2
2023/10/12 00:00:40;;;;;;;3.33;2.05;;;;;;;;;;4986653;28;20069;-73
2023/10/12 00:03:07;;;;;;;3.85;2.47;;;;;;;;;;4988197;28;20034;-73
2023/10/12 00:05:34;;;;;;;3.85;2.70;;;;;;;;;;4987286;28;20727;-73
2023/10/12 00:08:06;;;;;;;2.80;2.03;;;;;;;;;;4987725;28;20108;-75
2023/10/12 00:10:40;;;;;;;4.05;2.17;;;;;;;;;;4986380;28;20034;-73
2023/10/12 00:13:06;;;;;;;3.88;2.40;;;;;;;;;;4984869;28;20058;-73
2023/10/12 00:15:38;;;;;;;3.75;2.20;;;;;;;;;;4970009;28;20272;-73
2023/10/12 00:18:10;;;;;;;3.47;2.33;;;;;;;;;;4987524;28;20393;-73
2023/10/12 00:20:37;;;;;;;3.30;2.30;;;;;;;;;;4970071;28;20069;-73
2023/10/12 00:23:14;;;;;;;3.10;2.17;;;;;;;;;;4987803;28;20034;-73
2023/10/12 00:25:54;;;;;;;4.63;2.42;;;;;;;;;;4986018;28;20308;-72
2023/10/12 00:28:20;;;;;;;4.65;2.30;;;;;;;;;;4986256;28;20336;-73
2023/10/12 00:30:47;;;;;;;3.60;2.55;;;;;;;;;;4987850;28;20042;-73
2023/10/12 00:33:12;;;;;;;3.40;2.63;;;;;;;;;;4987598;28;20351;-73
2023/10/12 00:35:37;;;;;;;3.70;2.65;;;;;;;;;;4972012;28;20446;-73
2023/10/12 00:38:19;;;;;;;4.13;2.72;;;;;;;;;;4985302;28;20038;-73
2023/10/12 00:40:51;;;;;;;4.68;3.08;;;;;;;;;;4985928;28;20512;-72
2023/10/12 00:43:16;;;;;;;4.22;3.10;;;;;;;;;;4987430;28;20042;-72
2023/10/12 00:45:42;;;;;;;3.88;3.08;;;;;;;;;;4971096;28;20086;-73
2023/10/12 00:48:08;;;;;;;4.82;3.50;;;;;;;;;;4967944;28;20030;-73
2023/10/12 00:50:36;;;;;;;4.25;3.35;;;;;;;;;;4983431;28;20412;-73
2023/10/12 00:55:45;;;;;;;5.72;3.70;;;;;;;;;;4986584;28;20061;-72
2023/10/12 00:58:14;;;;;;;4.03;3.30;;;;;;;;;;4988225;28;20069;-74
2023/10/12 01:00:45;;;;;;;4.38;3.63;;;;;;;;;;4990505;28;20038;-73
2023/10/12 01:08:36;;;;;;;4.95;3.60;;;;;;;;;;4970803;28;20042;-72
2023/10/12 01:11:06;;;;;;;3.92;3.38;;;;;;;;;;4959223;28;20051;-72
2023/10/12 01:13:35;;;;;;;4.57;3.47;;;;;;;;;;4967080;28;20560;-72
2023/10/12 01:16:07;;;;;;;4.15;3.70;;;;;;;;;;4966922;28;20136;-72
2023/10/12 01:18:34;;;;;;;6.07;3.67;;;;;;;;;;4985429;28;20026;-73
2023/10/12 01:21:02;;;;;;;5.20;3.80;;;;;;;;;;4984153;28;20125;-73
2023/10/12 01:23:28;;;;;;;4.55;3.53;;;;;;;;;;4973238;28;20030;-73
2023/10/12 01:26:03;;;;;;;4.07;3.20;;;;;;;;;;4972733;28;20413;-73
2023/10/12 01:28:28;;;;;;;4.78;3.63;;;;;;;;;;4975709;28;20257;-73
2023/10/12 01:30:54;;;;;;;4.10;3.57;;;;;;;;;;4986624;28;20583;-73
2023/10/12 01:33:19;;;;;;;4.95;3.55;;;;;;;;;;4973617;28;20419;-73
2023/10/12 01:35:49;;;;;;;4.50;3.50;;;;;;;;;;4973601;28;20461;-73
2023/10/12 01:38:14;;;;;;;;;;;;;;;;;;4963177;28;20282;-72
2023/10/12 01:43:17;;;;;;;4.63;3.25;;;;;;;;;;4983746;28;20424;-73
2023/10/12 01:45:43;;;;;;;5.35;3.40;;;;;;;;;;4971004;28;20043;-73
2023/10/12 01:48:11;;;;;;;4.50;3.63;;;;;;;;;;4951175;28;20081;-73
2023/10/12 01:50:40;;;;;;;3.70;3.30;;;;;;;;;;4984995;28;20097;-73
2023/10/12 01:53:12;;;;;;;4.57;3.65;;;;;;;;;;4964801;28;20077;-73
2023/10/12 01:55:37;;;;;;;4.07;3.42;;;;;;;;;;4977743;28;20026;-73
2023/10/12 01:58:04;;;;;;;4.03;3.30;;;;;;;;;;4965101;28;20023;-73
2023/10/12 02:00:39;;;;;;;4.28;3.40;;;;;;;;;;4968450;28;20023;-73
2023/10/12 02:06:01;;;;;;;4.32;3.38;;;;;;;;;;4976748;28;20042;-73
2023/10/12 02:08:32;;;;;;;3.78;3.15;;;;;;;;;;4961142;28;20118;-73
2023/10/12 02:11:06;;;;;;;4.05;3.35;;;;;;;;;;4962496;28;20038;-73
2023/10/12 02:13:33;;;;;;;4.53;3.30;;;;;;;;;;4978231;28;20037;-73
2023/10/12 02:16:00;;;;;;;3.45;3.03;;;;;;;;;;4982924;28;20531;-73
2023/10/12 02:18:25;;;;;;;3.90;3.28;;;;;;;;;;4985119;28;20507;-73
2023/10/12 02:29:20;;;;;;;4.43;3.30;;;;;;;;;;4961576;28;20047;-71
2023/10/12 02:34:17;;;;;;;4.38;3.17;;;;;;;;;;4966503;28;20073;-72
2023/10/12 02:37:04;;;;;;;4.07;3.50;;;;;;;;;;4983056;28;20033;-72
2023/10/12 02:39:30;;;;;;;3.92;2.95;;;;;;;;;;4985030;28;20031;-72
2023/10/12 02:42:38;;;;;;;3.35;2.78;;;;;;;;;;4967620;28;20035;-72
2023/10/12 02:47:12;;;;;;;4.03;3.15;;;;;;;;;;4966963;28;20510;-72
2023/10/12 02:49:41;;;;;;;3.95;3.35;;;;;;;;;;4966019;28;20045;-71
2023/10/12 02:52:08;;;;;;;3.97;3.50;;;;;;;;;;4967435;28;20504;-71
2023/10/12 02:54:51;;;;;;;3.30;2.90;;;;;;;;;;4983154;28;20706;-72
2023/10/12 02:57:21;;;;;;;5.25;3.35;;;;;;;;;;4981722;28;20054;-72
2023/10/12 02:59:49;;;;;;;5.35;3.30;;;;;;;;;;4971951;28;20039;-72
2023/10/12 03:02:20;;;;;;;3.67;3.10;;;;;;;;;;4966840;28;20066;-71
2023/10/12 03:04:46;;;;;;;3.80;3.30;;;;;;;;;;4965896;28;20034;-71
2023/10/12 03:07:16;;;;;;;4.10;3.57;;;;;;;;;;4985078;28;20432;-71
2023/10/12 03:09:43;;;;;;;3.50;2.90;;;;;;;;;;4979787;28;20362;-72
2023/10/12 03:12:10;;;;;;;3.75;3.25;;;;;;;;;;4981025;28;20104;-71
2023/10/12 03:14:35;;;;;;;3.50;2.95;;;;;;;;;;4984117;28;20061;-71
2023/10/12 03:17:02;;;;;;;3.65;3.15;;;;;;;;;;4980299;28;20066;-71
2023/10/12 03:19:28;;;;;;;3.92;3.15;;;;;;;;;;4984140;28;20453;-72
2023/10/12 03:22:03;;;;;;;3.75;3.28;;;;;;;;;;4984942;28;20077;-72
2023/10/12 03:24:43;;;;;;;4.43;3.20;;;;;;;;;;4966902;28;20038;-71
2023/10/12 03:27:11;;;;;;;4.85;3.20;;;;;;;;;;4984260;28;20043;-71
2023/10/12 03:29:43;;;;;;;3.38;2.70;;;;;;;;;;4973428;28;20105;-71
2023/10/12 03:32:11;;;;;;;3.50;2.97;;;;;;;;;;4975000;28;20041;-72
2023/10/12 03:34:46;;;;;;;4.20;2.90;;;;;;;;;;4968527;28;20833;-71
2023/10/12 03:37:14;;;;;;;2.95;2.65;;;;;;;;;;4967645;28;20046;-73
2023/10/12 03:42:41;;;;;;;3.67;2.97;;;;;;;;;;4969308;28;20031;-71
2023/10/12 03:45:08;;;;;;;4.70;2.90;;;;;;;;;;4979828;28;20077;-70
2023/10/12 03:47:46;;;;;;;3.78;2.90;;;;;;;;;;4976947;28;20046;-70
2023/10/12 03:50:16;;;;;;;4.75;2.90;;;;;;;;;;4970379;28;20090;-70
2023/10/12 03:52:51;;;;;;;4.45;3.22;;;;;;;;;;4961989;28;20052;-70
2023/10/12 03:55:35;;;;;;;3.30;2.80;;;;;;;;;;4986703;28;20043;-70
2023/10/12 03:58:14;;;;;;;4.68;2.88;;;;;;;;;;4972087;28;20121;-70
2023/10/12 04:01:05;;;;;;;3.10;2.53;;;;;;;;;;4957620;28;20035;-70
2023/10/12 04:03:35;;;;;;;4.00;2.60;;;;;;;;;;4949927;28;20413;-70
2023/10/12 04:06:09;;;;;;;3.90;2.60;;;;;;;;;;4983285;28;20047;-70
2023/10/12 04:08:46;;;;;;;3.55;2.67;;;;;;;;;;4969190;28;20020;-72
2023/10/12 04:13:58;;;;;;;3.47;2.63;;;;;;;;;;4968136;28;20066;-70
2023/10/12 04:21:22;;;;;;;3.17;2.60;;;;;;;;;;4987577;28;20269;-71
2023/10/12 04:28:59;;;;;;;3.47;2.50;;;;;;;;;;4976492;28;20217;-72
2023/10/12 04:34:06;;;;;;;4.13;2.70;;;;;;;;;;4978913;28;20041;-72
2023/10/12 04:36:44;;;;;;;3.83;2.75;;;;;;;;;;4966538;28;20038;-73
2023/10/12 04:39:24;;;;;;;4.68;2.60;;;;;;;;;;4948783;28;20037;-72
2023/10/12 04:47:12;;;;;;;3.95;2.80;;;;;;;;;;4977742;28;20351;-76
2023/10/12 04:52:16;;;;;;;6.88;2.88;;;;;;;;;;4975215;28;20033;-71
2023/10/12 04:57:26;;;;;;;3.92;2.80;;;;;;;;;;4967073;28;20042;-74
2023/10/12 05:00:00;;;;;;;3.63;2.70;;;;;;;;;;4981212;28;20104;-75
2023/10/12 05:02:30;;;;;;;4.68;3.10;;;;;;;;;;4963729;28;20031;-72
2023/10/12 05:08:05;;;;;;;4.55;2.97;;;;;;;;;;4975580;28;20050;-72
2023/10/12 05:13:04;;;;;;;5.55;2.78;;;;;;;;;;4977566;28;20157;-71
2023/10/12 05:18:17;;;;;;;4.57;2.70;;;;;;;;;;4972537;28;20073;-72
2023/10/12 05:20:43;;;;;;;8.23;2.80;;;;;;;;;;4978409;28;20351;-71
2023/10/12 05:23:08;;;;;;;5.93;3.00;;;;;;;;;;4960090;28;20603;-71
2023/10/12 05:28:18;;;;;;;6.13;2.90;;;;;;;;;;4977009;28;20121;-73
2023/10/12 05:31:28;;;;;;;6.45;2.85;;;;;;;;;;4944717;28;20057;-71
2023/10/12 05:36:10;;;;;;;7.15;2.95;;;;;;;;;;4959694;28;20513;-71
2023/10/12 05:38:39;;;;;;;5.72;2.92;;;;;;;;;;4961356;28;20038;-70
2023/10/12 05:41:08;;;;;;;3.53;2.50;;;;;;;;;;4975684;28;20050;-72
2023/10/12 05:43:33;;;;;;;7.50;2.90;;;;;;;;;;4972845;28;20497;-72
2023/10/12 05:46:04;;;;;;;6.88;3.08;;;;;;;;;;4973405;28;20114;-72
2023/10/12 05:48:33;;;;;;;7.15;3.00;;;;;;;;;;4974304;28;20137;-72
2023/10/12 05:50:59;;;;;;;6.73;2.80;;;;;;;;;;4971130;28;20505;-70
2023/10/12 05:53:26;;;;;;;4.75;2.55;;;;;;;;;;4956838;28;20298;-73
2023/10/12 05:55:52;;;;;;;5.88;2.92;;;;;;;;;;4971784;28;20046;-71
2023/10/12 05:58:17;;;;;;;5.13;3.17;;;;;;;;;;4973417;28;20490;-72
2023/10/12 06:00:46;;;;;;;6.70;2.78;;;;;;;;;;4972791;28;20049;-75
2023/10/12 06:03:21;;;;;;;6.05;3.15;;;;;;;;;;4973525;28;20038;-74
2023/10/12 06:05:46;;;;;;;6.80;2.90;;;;;;;;;;4971313;28;20046;-74
2023/10/12 06:08:18;;;;;;;4.15;2.78;;;;;;;;;;4970970;28;20042;-74
2023/10/12 06:10:44;;;;;;;5.95;3.15;;;;;;;;;;4955470;28;20062;-76
2023/10/12 06:13:09;;;;;;;6.95;3.00;;;;;;;;;;4959964;28;20074;-74
2023/10/12 06:15:53;;;;;;;6.55;2.95;;;;;;;;;;4966050;28;20216;-74
2023/10/12 06:18:29;;;;;;;6.55;2.90;;;;;;;;;;4973730;28;20039;-74
2023/10/12 06:21:06;;;;;;;4.40;2.75;;;;;;;;;;4971987;28;20069;-73
2023/10/12 06:23:31;;;;;;;6.45;2.90;;;;;;;;;;4971436;28;20043;-73
2023/10/12 06:25:56;;;;;;;6.15;2.92;;;;;;;;;;4970380;28;20053;-73
2023/10/12 06:28:23;;;;;;;6.57;3.20;;;;;;;;;;4974206;28;20099;-73
2023/10/12 06:30:50;;;;;;;5.70;2.95;;;;;;;;;;4974226;28;20426;-73
2023/10/12 06:33:17;;;;;;;4.40;2.85;;;;;;;;;;4954656;28;20043;-72
2023/10/12 06:35:58;;;;;;;4.88;2.30;;;;;;;;;;4956312;28;20035;-72
2023/10/12 06:38:37;;;;;;;7.13;2.88;;;;;;;;;;4971326;28;20045;-71
2023/10/12 06:43:57;;;;;;;8.20;3.30;;;;;;;;;;4956740;28;20113;-74
2023/10/12 06:46:27;;;;;;;6.97;3.28;;;;;;;;;;4962981;28;20109;-73
2023/10/12 06:48:58;;;;;;;5.35;3.05;;;;;;;;;;4949059;28;20101;-74
2023/10/12 06:51:27;;;;;;;6.88;3.45;;;;;;;;;;4934587;28;20125;-73
2023/10/12 06:53:53;;;;;;;5.13;3.00;;;;;;;;;;4951072;28;20031;-72
2023/10/12 06:59:10;;;;;;;4.50;3.00;;;;;;;;;;4952752;28;20043;-77
2023/10/12 07:01:39;;;;;;;4.85;2.88;;;;;;;;;;4968234;28;20535;-76
2023/10/12 07:04:12;;;;;;;4.75;3.10;;;;;;;;;;4956310;28;20132;-77
2023/10/12 07:06:39;;;;;;;5.05;2.78;;;;;;;;;;4955263;28;20059;-77
2023/10/12 07:09:05;;;;;;;4.85;2.83;;;;;;;;;;4977254;28;20039;-77
2023/10/12 07:11:30;;;;;;;7.15;3.20;;;;;;;;;;4960409;28;20082;-77
2023/10/12 07:13:57;;;;;;;6.13;3.27;;;;;;;;;;4976922;28;20042;-77
2023/10/12 07:16:22;;;;;;;6.13;3.45;;;;;;;;;;4975860;28;20743;-77
2023/10/12 07:18:49;;;;;;;8.50;3.30;;;;;;;;;;4976020;28;20042;-77
2023/10/12 07:21:21;;;;;;;5.63;3.22;;;;;;;;;;4977277;28;20109;-76
2023/10/12 07:23:52;;;;;;;5.95;3.20;;;;;;;;;;4977401;28;21844;-76
2023/10/12 07:26:18;;;;;;;5.05;3.13;;;;;;;;;;4959179;28;20046;-77
2023/10/12 07:28:49;;;;;;;5.38;3.10;;;;;;;;;;4960360;28;20050;-77
2023/10/12 07:36:44;;;;;;;5.53;3.08;;;;;;;;;;4978800;28;20047;-77
2023/10/12 07:39:20;;;;;;;5.88;3.42;;;;;;;;;;4965403;28;20303;-79
2023/10/12 07:42:12;;;;;;;7.18;3.20;;;;;;;;;;4974224;28;20457;-79
2023/10/12 07:44:38;;;;;;;7.63;2.90;;;;;;;;;;4958341;28;20164;-79
2023/10/12 07:47:13;;;;;;;6.40;3.05;;;;;;;;;;4957958;28;20082;-76
2023/10/12 07:49:40;;;;;;;8.38;3.50;;;;;;;;;;4959773;28;20045;-80
2023/10/12 07:52:48;;;;;;;6.95;3.42;;;;;;;;;;4970304;28;20027;-79
2023/10/12 07:54:58;;;;;;;4.78;2.95;;;;;;;;;;4961085;28;20577;-79
2023/10/12 07:57:29;;;;;;;5.55;3.30;;;;;;;;;;4959420;28;20035;-80
2023/10/12 08:02:32;;;;;;;7.30;3.10;;;;;;;;;;4960484;28;20137;-78
2023/10/12 08:05:14;;;;;;;6.22;3.03;;;;;;;;;;4959680;28;20350;-78
2023/10/12 08:07:59;;;;;;;4.82;3.42;;;;;;;;;;4960849;28;20738;-79
2023/10/12 08:10:56;;;;;;;6.15;3.38;;;;;;;;;;4960585;28;20038;-77
2023/10/12 08:21:58;;;;;;;5.15;3.10;;;;;;;;;;4981574;28;20045;-76
2023/10/12 08:39:51;;;;;;;6.80;3.28;;;;;;;;;;4969398;28;20042;-76
2023/10/12 08:44:50;;;;;;;4.80;3.03;;;;;;;;;;4967161;28;20557;-76
2023/10/12 08:47:26;;;;;;;5.00;3.47;;;;;;;;;;4979574;28;20049;-77
2023/10/12 08:50:05;;;;;;;6.95;3.03;;;;;;;;;;4986198;28;20042;-77
2023/10/12 08:52:33;;;;;;;7.05;3.10;;;;;;;;;;4969153;28;20433;-78
2023/10/12 08:55:03;;;;;;;4.45;2.85;;;;;;;;;;4984769;28;20034;-74
2023/10/12 08:57:38;;;;;;;6.15;3.65;;;;;;;;;;4973549;28;20161;-74
2023/10/12 09:02:51;;;;;;;7.35;4.63;;;;;;;;;;4972698;28;20043;-75
2023/10/12 09:05:18;;;;;;;11.50;4.90;;;;;;;;;;4976839;28;20061;-74
2023/10/12 09:07:45;;;;;;;10.35;5.07;;;;;;;;;;4990975;28;20428;-74
2023/10/12 09:10:36;;;;;;;8.05;4.85;;;;;;;;;;4990773;28;20049;-76
2023/10/12 09:12:56;;;;;;;9.82;4.57;;;;;;;;;;4996453;28;20031;-75
2023/10/12 09:15:29;;;;;;;11.38;4.72;;;;;;;;;;4987815;28;20023;-73
2023/10/12 09:17:54;;;;;;;7.85;4.82;;;;;;;;;;4976581;28;20061;-78
2023/10/12 09:20:31;;;;;;;27.40;6.32;;;;;;;;;;4989192;28;20119;-74
2023/10/12 09:23:03;;;;;;;20.98;5.25;;;;;;;;;;4972699;28;20105;-71
2023/10/12 09:28:14;;;;;;;20.42;6.53;;;;;;;;;;4984399;28;20069;-71
2023/10/12 09:30:44;;;;;;;28.95;6.45;;;;;;;;;;4962900;28;20055;-71
2023/10/12 09:33:44;;;;;;;;;;;;;;;;;;4960842;28;20042;-71
2023/10/12 09:36:00;;;;;;;14.07;5.47;;;;;;;;;;4981194;28;19914;-71
2023/10/12 09:38:30;;;;;;;15.40;5.45;;;;;;;;;;4967213;28;20035;-72
2023/10/12 09:40:56;;;;;;;17.52;5.50;;;;;;;;;;4974101;28;20034;-75
2023/10/12 09:43:25;;;;;;;10.88;5.05;;;;;;;;;;4974681;28;20031;-71
2023/10/12 09:45:55;;;;;;;14.53;5.73;;;;;;;;;;4974562;28;20049;-71
2023/10/12 09:48:24;;;;;;;10.75;4.88;;;;;;;;;;4960870;28;20039;-74
2023/10/12 09:50:50;;;;;;;12.65;5.00;;;;;;;;;;4964835;28;20034;-75
2023/10/12 09:53:26;;;;;;;13.45;4.90;;;;;;;;;;4962126;28;20489;-73
2023/10/12 10:02:27;;;;;;;12.75;4.55;;;;;;;;;;4930755;29;20034;-72
2023/10/12 10:04:42;;;;;;;17.50;4.38;;;;;;;;;;4952897;28;20046;-71
2023/10/12 10:07:25;;;;;;;8.30;4.78;;;;;;;;;;4974960;28;20101;-71
2023/10/12 10:09:56;;;;;;;13.07;4.03;;;;;;;;;;4980350;28;20045;-72
2023/10/12 10:12:22;;;;;;;6.90;4.07;;;;;;;;;;4975983;28;20420;-71
2023/10/12 10:14:53;;;;;;;9.75;4.07;;;;;;;;;;4974168;28;20039;-70
2023/10/12 10:17:23;;;;;;;7.05;4.18;;;;;;;;;;4973708;28;20039;-70
2023/10/12 10:19:52;;;;;;;10.75;4.45;;;;;;;;;;4960543;28;20039;-70
2023/10/12 10:22:18;;;;;;;8.68;3.83;;;;;;;;;;4954776;28;20560;-70
2023/10/12 10:24:50;;;;;;;7.43;4.18;;;;;;;;;;4936572;28;20555;-69
2023/10/12 10:27:15;;;;;;;9.88;3.22;;;;;;;;;;4938577;28;20043;-70
2023/10/12 10:29:44;;;;;;;9.90;3.70;;;;;;;;;;4954698;28;20592;-69
2023/10/12 10:32:14;;;;;;;9.63;3.85;;;;;;;;;;4938974;28;20038;-72
2023/10/12 10:34:40;;;;;;;8.30;3.75;;;;;;;;;;4937893;28;20426;-72
2023/10/12 10:37:11;;;;;;;13.50;4.22;;;;;;;;;;4939346;28;20027;-70
2023/10/12 10:39:38;;;;;;;9.70;4.22;;;;;;;;;;4937543;28;20038;-70
2023/10/12 10:42:08;;;;;;;10.43;3.88;;;;;;;;;;4969538;28;20038;-72
2023/10/12 10:44:33;;;;;;;;;;;;;;;;;;4974634;28;20037;-72
2023/10/12 10:47:00;;;;;;;9.67;3.87;;;;;;;;;;4972141;28;19929;-72
2023/10/12 10:49:31;;;;;;;13.05;4.35;;;;;;;;;;4972023;28;20034;-71
2023/10/12 10:54:39;;;;;;;8.40;3.70;;;;;;;;;;4972036;28;20050;-68
2023/10/12 10:57:14;;;;;;;9.68;3.70;;;;;;;;;;4953204;28;20528;-71
2023/10/12 10:59:42;;;;;;;8.00;4.15;;;;;;;;;;4971194;28;20046;-77
2023/10/12 11:02:11;;;;;;;7.93;3.47;;;;;;;;;;4970037;28;21001;-76
2023/10/12 11:04:42;;;;;;;8.20;3.72;;;;;;;;;;4971424;28;20038;-75
2023/10/12 11:07:13;;;;;;;8.57;3.83;;;;;;;;;;4970412;28;20043;-75
2023/10/12 11:12:17;;;;;;;6.60;3.35;;;;;;;;;;4970286;28;20561;-77
2023/10/12 11:15:01;;;;;;;8.70;3.80;;;;;;;;;;4949721;28;20129;-76
2023/10/12 11:17:30;;;;;;;7.95;3.80;;;;;;;;;;4970409;28;20065;-76
2023/10/12 11:19:57;;;;;;;11.38;4.03;;;;;;;;;;4969684;28;20035;-76
2023/10/12 11:22:22;;;;;;;11.23;3.58;;;;;;;;;;4949202;28;20414;-75
2023/10/12 11:24:53;;;;;;;6.32;3.72;;;;;;;;;;4981690;28;20043;-75
2023/10/12 11:27:31;;;;;;;8.30;3.45;;;;;;;;;;4964850;28;20062;-75
2023/10/12 11:30:00;;;;;;;6.43;3.42;;;;;;;;;;4968126;28;20045;-76
2023/10/12 11:32:26;;;;;;;7.30;3.67;;;;;;;;;;4967865;28;20042;-76
2023/10/12 11:34:54;;;;;;;5.00;3.30;;;;;;;;;;4971964;28;20429;-76
2023/10/12 11:37:19;;;;;;;6.28;3.50;;;;;;;;;;4963351;28;20126;-75
2023/10/12 11:39:45;;;;;;;7.28;3.67;;;;;;;;;;4964823;28;20082;-76
2023/10/12 11:42:13;;;;;;;8.23;4.10;;;;;;;;;;4942227;28;20077;-76
2023/10/12 11:44:42;;;;;;;7.25;3.53;;;;;;;;;;4961554;28;20038;-75
2023/10/12 11:47:28;;;;;;;7.57;3.45;;;;;;;;;;4954932;28;20050;-76
2023/10/12 11:49:55;;;;;;;11.38;3.88;;;;;;;;;;4944495;28;20043;-76
2023/10/12 11:52:32;;;;;;;8.43;3.53;;;;;;;;;;4952730;28;20166;-76
2023/10/12 11:55:07;;;;;;;9.25;3.42;;;;;;;;;;4952785;28;20089;-75
2023/10/12 11:57:37;;;;;;;7.20;3.47;;;;;;;;;;4955260;28;20050;-76
2023/10/12 12:02:57;;;;;;;6.20;3.55;;;;;;;;;;4952221;28;20038;-76
2023/10/12 12:05:32;;;;;;;5.57;3.33;;;;;;;;;;4971601;28;20122;-76
2023/10/12 12:07:59;;;;;;;7.53;3.50;;;;;;;;;;4960574;28;20481;-76
2023/10/12 12:10:38;;;;;;;7.90;3.67;;;;;;;;;;4970519;28;20055;-76
2023/10/12 12:13:04;;;;;;;7.37;3.27;;;;;;;;;;4962627;28;20092;-76
2023/10/12 12:15:29;;;;;;;6.57;3.15;;;;;;;;;;4976645;28;20473;-76
2023/10/12 12:17:55;;;;;;;7.70;4.00;;;;;;;;;;4988913;28;20041;-76
2023/10/12 12:20:23;;;;;;;6.63;3.20;;;;;;;;;;4979667;28;20298;-76
2023/10/12 12:22:48;;;;;;;5.60;3.10;;;;;;;;;;4978205;28;20089;-76
2023/10/12 12:25:31;;;;;;;6.53;3.58;;;;;;;;;;4987013;28;20042;-76
2023/10/12 12:27:59;;;;;;;5.68;3.03;;;;;;;;;;4998019;28;20037;-76
2023/10/12 12:30:35;;;;;;;6.97;3.50;;;;;;;;;;4989498;28;20149;-76
2023/10/12 12:33:00;;;;;;;6.75;3.33;;;;;;;;;;4987078;28;20073;-68
2023/10/12 12:35:29;;;;;;;7.43;3.30;;;;;;;;;;4992214;28;20045;-71
2023/10/12 12:38:00;;;;;;;6.40;3.40;;;;;;;;;;4981029;28;20041;-74
2023/10/12 12:40:30;;;;;;;6.15;3.78;;;;;;;;;;4981562;28;20406;-74
2023/10/12 12:42:55;;;;;;;9.32;3.65;;;;;;;;;;4988724;28;20030;-76
2023/10/12 12:45:20;;;;;;;7.88;3.75;;;;;;;;;;4980800;28;20038;-74
2023/10/12 12:47:46;;;;;;;8.90;3.65;;;;;;;;;;4973890;28;20047;-69
2023/10/12 12:50:11;;;;;;;6.88;3.40;;;;;;;;;;4975840;28;20544;-85
2023/10/12 12:52:36;;;;;;;7.07;3.60;;;;;;;;;;4957303;28;20077;-73
2023/10/12 12:55:09;;;;;;;10.20;3.58;;;;;;;;;;4975612;28;20527;-74
2023/10/12 12:57:35;;;;;;;7.95;3.67;;;;;;;;;;4959666;28;20326;-72
2023/10/12 13:00:07;;;;;;;9.57;3.13;;;;;;;;;;4954917;28;20466;-71
2023/10/12 13:02:32;;;;;;;9.57;3.10;;;;;;;;;;4954667;28;20286;-73
2023/10/12 13:04:57;;;;;;;11.15;3.05;;;;;;;;;;4953047;28;20031;-73
2023/10/12 13:07:23;;;;;;;8.93;3.25;;;;;;;;;;4972898;28;20141;-75
2023/10/12 13:09:48;;;;;;;8.47;3.70;;;;;;;;;;4976990;28;20049;-73
2023/10/12 13:12:13;;;;;;;6.77;3.57;;;;;;;;;;4976042;28;20409;-72
2023/10/12 13:14:42;;;;;;;9.03;3.60;;;;;;;;;;4974942;28;20787;-76
2023/10/12 13:17:08;;;;;;;7.35;3.45;;;;;;;;;;4957935;28;20286;-76
2023/10/12 13:19:34;;;;;;;7.32;3.38;;;;;;;;;;4946077;28;20671;-75
2023/10/12 13:21:59;;;;;;;7.93;3.30;;;;;;;;;;4958505;28;20042;-75
2023/10/12 13:24:25;;;;;;;7.82;3.13;;;;;;;;;;4973760;28;20294;-77
2023/10/12 13:26:51;;;;;;;7.63;3.30;;;;;;;;;;4957052;28;20123;-76
2023/10/12 13:29:17;;;;;;;7.97;3.10;;;;;;;;;;4989649;28;20030;-75
2023/10/12 13:31:42;;;;;;;9.50;3.65;;;;;;;;;;4994608;28;20390;-77
2023/10/12 13:34:10;;;;;;;8.27;3.20;;;;;;;;;;4980914;28;20174;-76
2023/10/12 13:36:36;;;;;;;5.60;3.20;;;;;;;;;;4987749;28;20827;-76
2023/10/12 13:39:03;;;;;;;5.20;3.00;;;;;;;;;;4980583;28;20133;-76
2023/10/12 13:41:29;;;;;;;7.43;2.92;;;;;;;;;;4981240;28;20100;-76
2023/10/12 13:43:54;;;;;;;5.10;3.22;;;;;;;;;;4996620;28;20046;-76
2023/10/12 13:46:20;;;;;;;6.80;2.90;;;;;;;;;;4964060;28;20073;-76
2023/10/12 13:48:49;;;;;;;5.45;2.70;;;;;;;;;;4977374;28;20385;-77
2023/10/12 13:53:42;;;;;;;6.72;3.15;;;;;;;;;;4978565;28;20046;-75
2023/10/12 13:56:08;;;;;;;6.68;2.60;;;;;;;;;;4978700;28;20038;-75
2023/10/12 13:58:37;;;;;;;4.85;3.03;;;;;;;;;;4959348;28;20102;-76
2023/10/12 14:01:03;;;;;;;6.88;3.00;;;;;;;;;;4963049;28;20096;-76
2023/10/12 14:03:28;;;;;;;5.35;3.03;;;;;;;;;;4979419;28;20397;-76
2023/10/12 14:06:00;;;;;;;6.18;3.00;;;;;;;;;;4978634;28;20047;-76
2023/10/12 14:08:28;;;;;;;6.35;2.80;;;;;;;;;;4945693;28;20086;-76
2023/10/12 14:10:54;;;;;;;9.05;3.35;;;;;;;;;;4938425;28;20119;-76
2023/10/12 14:13:19;;;;;;;7.68;3.08;;;;;;;;;;4944769;28;20125;-76
2023/10/12 14:15:44;;;;;;;4.95;2.85;;;;;;;;;;4956663;28;20585;-76
2023/10/12 14:18:11;;;;;;;6.43;2.70;;;;;;;;;;4946010;28;20041;-76
2023/10/12 14:20:37;;;;;;;4.90;2.70;;;;;;;;;;4920982;28;20270;-77
2023/10/12 14:23:09;;;;;;;5.93;2.97;;;;;;;;;;4942315;28;20053;-76
2023/10/12 14:25:46;;;;;;;6.13;2.80;;;;;;;;;;4958515;28;20027;-77
2023/10/12 14:28:16;;;;;;;5.00;3.17;;;;;;;;;;4969669;28;20043;-76
2023/10/12 14:30:41;;;;;;;7.03;3.13;;;;;;;;;;4956532;28;20046;-72
2023/10/12 14:33:07;;;;;;;8.68;3.53;;;;;;;;;;4969238;28;20054;-72
2023/10/12 14:35:36;;;;;;;8.30;2.90;;;;;;;;;;4949839;28;20441;-72
2023/10/12 14:38:08;;;;;;;7.70;3.30;;;;;;;;;;4956279;28;20717;-73
2023/10/12 14:40:33;;;;;;;5.85;3.30;;;;;;;;;;4986671;28;20034;-72
2023/10/12 14:43:11;;;;;;;6.07;2.92;;;;;;;;;;4986689;28;20034;-72
2023/10/12 14:45:37;;;;;;;6.88;3.42;;;;;;;;;;4986039;28;20030;-74
2023/10/12 14:48:11;;;;;;;6.60;3.30;;;;;;;;;;4980177;28;20161;-73
2023/10/12 14:50:38;;;;;;;10.20;3.60;;;;;;;;;;4975806;28;20042;-72
2023/10/12 14:53:03;;;;;;;7.10;3.15;;;;;;;;;;4990818;28;20061;-72
2023/10/12 14:55:28;;;;;;;6.28;3.70;;;;;;;;;;5005991;28;20489;-72
2023/10/12 14:57:54;;;;;;;11.17;3.50;;;;;;;;;;4978712;28;20600;-72
2023/10/12 15:00:22;;;;;;;8.67;3.57;;;;;;;;;;4967284;28;20270;-72
2023/10/12 15:02:51;;;;;;;8.50;2.80;;;;;;;;;;4973961;28;20364;-71
2023/10/12 15:05:16;;;;;;;6.07;3.40;;;;;;;;;;5006104;28;20527;-72
2023/10/12 15:07:41;;;;;;;7.40;3.13;;;;;;;;;;4985052;28;20051;-73
2023/10/12 15:10:07;;;;;;;6.65;2.92;;;;;;;;;;4983340;28;20509;-73
2023/10/12 15:12:33;;;;;;;7.95;3.10;;;;;;;;;;4985716;28;20497;-72
2023/10/12 15:15:01;;;;;;;6.07;3.22;;;;;;;;;;4954340;28;20110;-72
2023/10/12 15:17:27;;;;;;;7.68;3.20;;;;;;;;;;4955352;28;20031;-72
2023/10/12 15:19:53;;;;;;;7.35;3.00;;;;;;;;;;4953784;28;20558;-72
2023/10/12 15:22:18;;;;;;;8.20;3.50;;;;;;;;;;4961672;28;20042;-71
2023/10/12 15:24:43;;;;;;;7.10;3.17;;;;;;;;;;4955284;28;20050;-70
2023/10/12 15:27:10;;;;;;;12.53;3.60;;;;;;;;;;4948848;28;20142;-71
2023/10/12 15:29:37;;;;;;;10.63;3.38;;;;;;;;;;4966353;28;20286;-71
2023/10/12 15:32:03;;;;;;;8.27;3.00;;;;;;;;;;4970788;28;20854;-71
2023/10/12 15:34:31;;;;;;;9.95;3.55;;;;;;;;;;4971026;28;20432;-72
2023/10/12 15:36:58;;;;;;;8.20;2.85;;;;;;;;;;4972500;28;20421;-71
2023/10/12 15:39:26;;;;;;;5.35;3.17;;;;;;;;;;4973679;28;20269;-72
2023/10/12 15:41:51;;;;;;;11.50;3.13;;;;;;;;;;4968959;28;20097;-72
2023/10/12 15:44:17;;;;;;;9.00;3.37;;;;;;;;;;4997620;28;20041;-72
2023/10/12 15:46:42;;;;;;;10.35;3.45;;;;;;;;;;4991607;28;20698;-72
2023/10/12 15:49:07;;;;;;;8.97;3.13;;;;;;;;;;4979831;28;20031;-73
2023/10/12 15:51:33;;;;;;;9.38;3.40;;;;;;;;;;4970860;28;20341;-72
2023/10/12 15:53:58;;;;;;;8.10;3.72;;;;;;;;;;4988139;28;20540;-73
2023/10/12 15:56:25;;;;;;;10.40;3.20;;;;;;;;;;4989715;28;20049;-72
2023/10/12 15:58:50;;;;;;;6.57;3.17;;;;;;;;;;4989344;28;20041;-71
2023/10/12 16:01:17;;;;;;;10.57;3.50;;;;;;;;;;4989564;28;20043;-73
2023/10/12 16:03:42;;;;;;;8.73;3.40;;;;;;;;;;4996960;28;20108;-73
2023/10/12 16:06:08;;;;;;;10.77;3.70;;;;;;;;;;5003627;28;20042;-76
2023/10/12 16:08:33;;;;;;;10.48;3.58;;;;;;;;;;4960558;28;20126;-72
2023/10/12 16:10:58;;;;;;;16.67;4.22;;;;;;;;;;4987023;28;20042;-72
2023/10/12 16:13:24;;;;;;;9.73;3.67;;;;;;;;;;4971702;28;20217;-71
2023/10/12 16:15:54;;;;;;;10.48;3.90;;;;;;;;;;4989740;28;21034;-71
2023/10/12 16:18:20;;;;;;;9.55;3.67;;;;;;;;;;4983761;28;20423;-73
2023/10/12 16:20:45;;;;;;;11.52;3.63;;;;;;;;;;4971963;28;20031;-72
2023/10/12 16:23:10;;;;;;;11.10;3.90;;;;;;;;;;4965622;28;20039;-73
2023/10/12 16:25:36;;;;;;;7.57;3.93;;;;;;;;;;4967690;28;20720;-73
2023/10/12 16:28:02;;;;;;;13.13;4.13;;;;;;;;;;4968907;28;20299;-73
2023/10/12 16:30:34;;;;;;;12.20;3.97;;;;;;;;;;4968980;28;20030;-72
2023/10/12 16:32:59;;;;;;;10.43;3.45;;;;;;;;;;4967716;28;20039;-72
2023/10/12 16:35:24;;;;;;;11.87;4.70;;;;;;;;;;4975198;28;20533;-72
2023/10/12 16:37:50;;;;;;;9.13;4.50;;;;;;;;;;4986160;28;20297;-71
2023/10/12 16:40:16;;;;;;;12.57;4.10;;;;;;;;;;4971145;28;20033;-72
2023/10/12 16:42:42;;;;;;;9.25;4.18;;;;;;;;;;4970419;28;20555;-71
2023/10/12 16:45:08;;;;;;;8.77;4.32;;;;;;;;;;4983370;28;20030;-71
2023/10/12 16:47:34;;;;;;;8.07;3.72;;;;;;;;;;4964837;28;20047;-71
2023/10/12 16:49:59;;;;;;;10.20;4.45;;;;;;;;;;4980820;28;20206;-71
2023/10/12 16:52:24;;;;;;;8.02;3.83;;;;;;;;;;4970894;28;20035;-71
2023/10/12 16:54:50;;;;;;;10.57;3.67;;;;;;;;;;4997364;28;20428;-71
2023/10/12 16:57:15;;;;;;;9.50;3.77;;;;;;;;;;4997212;28;20295;-72
2023/10/12 16:59:41;;;;;;;9.07;3.92;;;;;;;;;;4983591;28;20309;-75
2023/10/12 17:02:06;;;;;;;9.13;3.75;;;;;;;;;;4971270;28;20034;-72
2023/10/12 17:04:35;;;;;;;7.63;3.42;;;;;;;;;;4985068;28;20647;-76
2023/10/12 17:07:01;;;;;;;7.90;3.30;;;;;;;;;;4981733;28;20050;-73